EGAAEGPN

Guest
Details From EGAA - Belfast Aldergrove
To EGPN - Dundee
Flight Number -
Tags generated
Created
Modified
Stats Distance 153 nm / 284 km
Max Altitude 19,100 ft / 5,822 m
Waypoints 3
Social Downloads 0
Likes 0
Share VATSIM

Download

Looking for another format? Having issues loading an existing format? Contact us
Advertisement - Login to hide

Notes

Basic altitude profile: - Ascent Rate: 2500ft/min - Ascent Speed: 250kts - Cruise Altitude: 35000ft - Cruise Speed: 420kts - Descent Rate: 1500ft/min - Descent Speed: 250kts

Route

EGAA HERON EGPN

ID Type Via Altitude Latitude Longitude Leg Dist Tot Dist Heading (true) Name
O EGAA APT - 0 ft / 0 m 54.65388˚ -6.22001˚ - 0 nm - Belfast Aldergrove
HERON FIX - 19,100 ft / 5,822 m 55.34306˚ -5.00000˚ 58 nm 58 nm 45° / 46° -
O EGPN APT - 0 ft / 0 m 56.45241˚ -3.02583˚ 94 nm 153 nm 44° / 46° Dundee

Altitude Profile

Advertisement - Login to hide

EGAA

Details ICAO EGAA (BFS)
Name Belfast Aldergrove
Region United Kingdom
Timezone Europe/London (UTC+1.0)
Stats Elevation 268 ft / 82 m (AMSL)
Location 54.653878° -6.220006°
Runways 2
Magnetic Variation 3.165° W

METAR

EGAA 241420Z 09007KT CAVOK 20/09 Q1023

Decode

TAF

TAF TAF EGAA 241105Z 2412/2512 10007KT 9999 FEW040 BECMG 2419/2422 35011KT PROB40 TEMPO 2502/2508 7000 BKN005

Decode

Departure Runways

ID Width Length Bearing (true) Bearing (mag) Surface Threshold Offset Overrun Length
07 148 ft / 45 m 9,095 ft / 2,772 m 65.01° 68.18° Asphalt 0 ft / 0 m 0 ft / 0 m
17 148 ft / 45 m 5,896 ft / 1,797 m 161.98° 165.15° Asphalt 525 ft / 160 m 0 ft / 0 m
25 148 ft / 45 m 9,095 ft / 2,772 m 245.05° 248.22° Asphalt 0 ft / 0 m 0 ft / 0 m
35 148 ft / 45 m 5,896 ft / 1,797 m 341.99° 345.16° Asphalt 502 ft / 153 m 0 ft / 0 m

EGPN

Details ICAO EGPN (DND)
Name Dundee
Region United Kingdom
Timezone Unknown (UTC+0.0)
Stats Elevation 17 ft / 5 m (AMSL)
Location 56.452410° -3.025830°
Runways 1
Magnetic Variation 2.170° W

METAR

EGPN 241420Z 09008KT 9999 FEW012 13/09 Q1026

Decode

TAF

Not found

Destination Runways

ID Width Length Bearing (true) Bearing (mag) Surface Threshold Offset Overrun Length
09 98 ft / 30 m 4,578 ft / 1,396 m 90.49° 92.66° Asphalt 0 ft / 0 m 0 ft / 0 m
27 98 ft / 30 m 4,578 ft / 1,396 m 270.51° 272.68° Asphalt 0 ft / 0 m 0 ft / 0 m

Approach Navaids

Runway Type Ident Frequency Range Bearing (true) Bearing (mag) Slope Elevation
09 Localiser IDDE 108.10 MHz 18 nm / 33 km 90.53° 92.70° - 17 ft / 5 m (AMSL)
09 Glidescope IDDE 108.10 MHz 10 nm / 19 km 90.50° 92.67° 3.00° 17 ft / 5 m (AMSL)
09 DME IDDE 108.10 MHz 18 nm / 33 km - - - 38 ft / 12 m (AMSL)